This is the latest recevied weather packets stored in our database for station/object SV2RCS-13. If no packets are shown the sender has not sent any weather packets the latest 10 day(s).
| Time | Temp. | Humidity | Pressure | Rain* | Wind** | Luminosity | Snow |
|---|---|---|---|---|---|---|---|
| 1788259550 | 31.11° C | 28% | 1011.9 hPa | - | - | - | - |
| 1788258940 | 31.11° C | 29% | 1011.8 hPa | - | - | - | - |
| 1788258339 | 31.11° C | 29% | 1012 hPa | - | - | - | - |
| 1788257744 | 31.11° C | 29% | 1012 hPa | - | - | - | - |
| 1788257139 | 31.67° C | 29% | 1011.9 hPa | - | - | - | - |
| 1788256539 | 32.22° C | 26% | 1012.1 hPa | - | - | - | - |
| 1788255941 | 33.33° C | 23% | 1011.8 hPa | - | - | - | - |
| 1788255339 | 33.89° C | 20% | 1011.8 hPa | - | - | - | - |
| 1788254740 | 34.44° C | 19% | 1011.7 hPa | - | - | - | - |
| 1788254142 | 35.56° C | 18% | 1011.3 hPa | - | - | - | - |
| 1788253539 | 35° C | 19% | 1011.6 hPa | - | - | - | - |
| 1788252940 | 33.89° C | 20% | 1011.9 hPa | - | - | - | - |
| 1788252340 | 34.44° C | 20% | 1011.8 hPa | - | - | - | - |
| 1788251740 | 33.89° C | 22% | 1011.9 hPa | - | - | - | - |
| 1788251139 | 33.33° C | 23% | 1012 hPa | - | - | - | - |
| 1788250540 | 33.33° C | 25% | 1012 hPa | - | - | - | - |
| 1788249940 | 32.22° C | 26% | 1012.5 hPa | - | - | - | - |
| 1788249340 | 32.22° C | 27% | 1012.6 hPa | - | - | - | - |
| 1788248740 | 30° C | 29% | 1012.9 hPa | - | - | - | - |
| 1788248140 | 32.22° C | 25% | 1012.5 hPa | - | - | - | - |
| 1788247539 | 32.78° C | 25% | 1012.5 hPa | - | - | - | - |
| 1788246939 | 32.22° C | 26% | 1012.4 hPa | - | - | - | - |
| 1788246340 | 31.67° C | 28% | 1012.6 hPa | - | - | - | - |
| 1788245739 | 31.67° C | 28% | 1012.7 hPa | - | - | - | - |
| 1788245147 | 30.56° C | 30% | 1012.9 hPa | - | - | - | - |
* Rain since midnight (hover to see other rain measurements)
** Current wind speed in m/s (hover to see current wind gust speed)